Time;durP1;ratioP1;P1;durP2;ratioP2;P2;SDS_P1;SDS_P2;PMS_P1;PMS_P2;Temp;Humidity;BMP_temperature;BMP_pressure;BME280_temperature;BME280_humidity;BME280_pressure;Samples;Min_cycle;Max_cycle;Signal;HPM_P1;HPM_P2
2023/09/02 00:01:11;;;;;;;4.93;3.17;;;15.20;99.90;;;;;;4251018;27;20043;-83
2023/09/02 00:03:11;;;;;;;6.07;3.70;;;15.20;99.90;;;;;;4216067;28;20864;-82
2023/09/02 00:05:12;;;;;;;4.68;3.05;;;15.00;99.90;;;;;;4233175;28;20114;-83
2023/09/02 00:07:13;;;;;;;4.63;3.05;;;15.10;99.90;;;;;;4232619;28;20123;-82
2023/09/02 00:09:15;;;;;;;4.40;3.00;;;15.10;99.90;;;;;;4251262;27;20550;-82
2023/09/02 00:11:15;;;;;;;5.75;3.28;;;15.10;99.90;;;;;;4233150;28;20058;-81
2023/09/02 00:13:16;;;;;;;6.45;2.65;;;15.00;99.90;;;;;;4251144;27;20050;-82
2023/09/02 00:15:17;;;;;;;4.90;2.90;;;15.00;99.90;;;;;;4250285;27;20047;-83
2023/09/02 00:17:18;;;;;;;4.90;3.10;;;15.00;99.90;;;;;;4218533;28;20052;-83
2023/09/02 00:19:19;;;;;;;5.63;2.90;;;15.80;99.90;;;;;;4216113;28;20420;-82
2023/09/02 00:21:19;;;;;;;5.82;2.65;;;14.90;99.90;;;;;;4217676;28;20066;-82
2023/09/02 00:23:20;;;;;;;4.35;2.80;;;14.80;99.90;;;;;;4246465;27;20035;-82
2023/09/02 00:25:24;;;;;;;4.88;2.20;;;14.70;99.90;;;;;;4232594;28;20087;-82
2023/09/02 00:27:25;;;;;;;7.72;3.78;;;15.90;99.90;;;;;;4232208;28;20047;-82
2023/09/02 00:29:26;;;;;;;3.92;2.58;;;14.70;99.90;;;;;;4233611;28;20061;-82
2023/09/02 00:31:28;;;;;;;4.88;2.78;;;14.60;99.90;;;;;;4216526;28;20097;-82
2023/09/02 00:33:29;;;;;;;4.72;2.65;;;14.60;99.90;;;;;;4215900;28;20531;-82
2023/09/02 00:35:30;;;;;;;3.85;2.70;;;;;;;;;;4216234;28;20055;-83
2023/09/02 00:37:31;;;;;;;7.55;3.10;;;;;;;;;;4216349;28;20427;-83
2023/09/02 00:39:33;;;;;;;8.57;2.70;;;;;;;;;;4216082;28;20113;-83
2023/09/02 00:41:46;;;;;;;4.85;2.90;;;;;;;;;;4216692;28;20523;-83
2023/09/02 00:43:47;;;;;;;6.75;2.80;;;13.60;99.90;;;;;;4217172;28;20134;-83
2023/09/02 00:45:48;;;;;;;5.30;2.95;;;14.40;99.90;;;;;;4200385;28;20084;-83
2023/09/02 00:47:50;;;;;;;5.10;2.55;;;14.40;99.90;;;;;;4238408;27;20043;-82
2023/09/02 00:49:50;;;;;;;4.80;2.85;;;14.30;99.90;;;;;;4255742;27;20039;-83
2023/09/02 00:51:51;;;;;;;4.65;2.58;;;14.20;99.90;;;;;;4250842;27;20054;-83
2023/09/02 00:53:52;;;;;;;5.78;2.70;;;14.20;99.90;;;;;;4202015;28;20040;-83
2023/09/02 00:55:53;;;;;;;4.20;3.00;;;14.10;99.90;;;;;;4234621;28;20126;-83
2023/09/02 00:57:56;;;;;;;4.82;2.88;;;14.10;99.90;;;;;;4215855;28;20044;-82
2023/09/02 00:59:57;;;;;;;7.55;3.05;;;12.90;99.90;;;;;;4217038;28;20101;-82
2023/09/02 01:02:01;;;;;;;4.75;2.83;;;14.10;99.90;;;;;;4242645;28;20500;-83
2023/09/02 01:04:05;;;;;;;3.83;3.03;;;13.70;99.90;;;;;;4245038;28;20449;-83
2023/09/02 01:06:08;;;;;;;5.45;3.00;;;14.30;99.90;;;;;;4216901;28;20032;-83
2023/09/02 01:08:09;;;;;;;6.85;3.30;;;14.10;99.90;;;;;;4199617;28;20048;-83
2023/09/02 01:10:10;;;;;;;5.72;3.70;;;14.20;99.90;;;;;;4233560;28;20046;-83
2023/09/02 01:12:12;;;;;;;5.43;3.10;;;14.10;99.90;;;;;;4233230;28;20516;-83
2023/09/02 01:14:14;;;;;;;5.03;3.40;;;14.10;99.90;;;;;;4233560;28;20403;-83
2023/09/02 01:16:15;;;;;;;7.80;3.35;;;14.00;99.90;;;;;;4233226;28;20522;-84
2023/09/02 01:18:18;;;;;;;9.93;3.50;;;14.10;99.90;;;;;;4198798;28;20049;-83
2023/09/02 01:20:23;;;;;;;5.78;3.70;;;14.00;99.90;;;;;;4214963;28;20044;-83
2023/09/02 01:22:42;;;;;;;7.32;3.38;;;14.00;99.90;;;;;;4233080;28;20040;-84
2023/09/02 01:24:48;;;;;;;6.25;3.35;;;12.90;99.90;;;;;;4214984;28;20048;-83
2023/09/02 01:27:21;;;;;;;6.63;3.58;;;14.00;99.90;;;;;;4233611;28;20052;-83
2023/09/02 01:29:25;;;;;;;5.15;3.13;;;14.00;99.90;;;;;;4233236;28;20040;-84
2023/09/02 01:31:29;;;;;;;6.10;3.40;;;14.00;99.90;;;;;;4214631;28;20134;-83
2023/09/02 01:33:30;;;;;;;10.25;3.72;;;13.90;99.90;;;;;;4214625;28;20504;-83
2023/09/02 01:35:35;;;;;;;6.60;3.38;;;13.90;99.90;;;;;;4233451;28;20046;-83
2023/09/02 01:37:44;;;;;;;4.72;3.08;;;12.90;99.90;;;;;;4197907;28;20052;-83
2023/09/02 01:39:47;;;;;;;6.57;3.15;;;13.90;99.90;;;;;;4197877;28;20510;-83
2023/09/02 01:41:52;;;;;;;3.92;2.72;;;13.80;99.90;;;;;;4214812;28;20097;-83
2023/09/02 01:43:54;;;;;;;4.07;2.92;;;13.80;99.90;;;;;;4232686;28;20039;-83
2023/09/02 01:45:56;;;;;;;5.00;3.03;;;13.80;99.90;;;;;;4214822;28;20040;-84
2023/09/02 01:47:58;;;;;;;3.60;2.75;;;13.70;99.90;;;;;;4232576;28;20486;-84
2023/09/02 01:49:59;;;;;;;3.83;2.67;;;13.70;99.90;;;;;;4208296;28;20055;-84
2023/09/02 01:52:02;;;;;;;10.85;3.97;;;13.60;99.90;;;;;;4232369;28;20032;-84
2023/09/02 01:54:03;;;;;;;8.15;3.45;;;13.60;99.90;;;;;;4232503;28;20483;-84
2023/09/02 01:56:04;;;;;;;7.03;2.88;;;13.60;99.90;;;;;;4232490;28;20082;-84
2023/09/02 01:58:05;;;;;;;5.20;2.97;;;13.50;99.90;;;;;;4232604;28;20032;-84
2023/09/02 02:00:06;;;;;;;6.10;3.38;;;13.50;99.90;;;;;;4231486;28;20043;-83
2023/09/02 02:02:07;;;;;;;4.70;3.28;;;13.40;99.90;;;;;;4232516;28;20130;-83
2023/09/02 02:04:21;;;;;;;7.40;3.85;;;13.40;99.90;;;;;;4214490;28;20479;-84
2023/09/02 02:06:24;;;;;;;6.22;3.38;;;13.40;99.90;;;;;;4214235;28;20123;-84
2023/09/02 02:08:44;;;;;;;4.82;3.08;;;13.40;99.90;;;;;;4214634;28;20059;-83
2023/09/02 02:10:48;;;;;;;4.68;2.80;;;13.40;99.90;;;;;;4197672;28;20120;-84
2023/09/02 02:12:49;;;;;;;3.85;3.00;;;13.30;99.90;;;;;;4232121;28;20495;-83
2023/09/02 02:14:49;;;;;;;4.88;2.97;;;13.40;99.90;;;;;;4213878;28;20071;-84
2023/09/02 02:16:50;;;;;;;9.65;3.42;;;13.40;99.90;;;;;;4214132;28;20459;-84
2023/09/02 02:18:51;;;;;;;8.00;3.00;;;13.40;99.90;;;;;;4197291;28;20057;-84
2023/09/02 02:21:05;;;;;;;4.03;2.80;;;13.30;99.90;;;;;;4232091;28;20116;-83
2023/09/02 02:23:06;;;;;;;7.70;3.65;;;13.30;99.90;;;;;;4213583;28;20056;-84
2023/09/02 02:25:08;;;;;;;7.63;3.22;;;13.30;99.90;;;;;;4197556;28;20889;-84
2023/09/02 02:27:09;;;;;;;6.28;3.67;;;13.40;99.90;;;;;;4197110;28;20058;-84
2023/09/02 02:29:10;;;;;;;5.57;3.50;;;13.30;99.90;;;;;;4232086;28;20044;-84
2023/09/02 02:31:11;;;;;;;4.65;3.15;;;13.30;99.90;;;;;;4213952;28;20086;-84
2023/09/02 02:33:11;;;;;;;7.07;3.55;;;13.30;99.90;;;;;;4231994;28;20040;-84
2023/09/02 02:35:12;;;;;;;5.43;3.83;;;13.30;99.90;;;;;;4196282;28;20045;-84
2023/09/02 02:37:13;;;;;;;4.97;3.70;;;13.30;99.90;;;;;;4213683;28;20451;-84
2023/09/02 02:39:14;;;;;;;5.00;3.28;;;13.40;99.90;;;;;;4232219;28;20100;-84
2023/09/02 02:41:15;;;;;;;5.32;3.58;;;13.20;99.90;;;;;;4213958;28;20036;-84
2023/09/02 02:43:16;;;;;;;5.10;3.20;;;13.30;99.90;;;;;;4213832;28;20040;-84
2023/09/02 02:45:17;;;;;;;6.80;3.60;;;13.20;99.90;;;;;;4231843;28;20048;-84
2023/09/02 02:47:18;;;;;;;6.40;3.10;;;13.10;99.90;;;;;;4232206;28;20040;-84
2023/09/02 02:49:19;;;;;;;6.53;3.30;;;13.10;99.90;;;;;;4213765;28;20097;-84
2023/09/02 02:51:20;;;;;;;6.15;3.55;;;13.20;99.90;;;;;;4243779;27;20043;-84
2023/09/02 02:53:21;;;;;;;5.90;3.55;;;13.20;99.90;;;;;;4213847;28;20538;-84
2023/09/02 02:55:22;;;;;;;6.97;3.78;;;13.10;99.90;;;;;;4213480;28;20048;-84
2023/09/02 02:57:23;;;;;;;6.63;3.53;;;13.10;99.90;;;;;;4230415;28;20036;-84
2023/09/02 02:59:24;;;;;;;4.97;3.28;;;13.10;99.90;;;;;;4248645;27;20040;-84
2023/09/02 03:01:25;;;;;;;6.38;3.47;;;13.10;99.90;;;;;;4230518;28;20048;-83
2023/09/02 03:03:26;;;;;;;7.20;3.90;;;13.10;99.90;;;;;;4230539;28;20052;-84
2023/09/02 03:05:27;;;;;;;5.35;3.70;;;13.10;99.90;;;;;;4248566;27;20436;-83
2023/09/02 03:07:27;;;;;;;7.18;3.97;;;13.10;99.90;;;;;;4229639;28;20043;-84
2023/09/02 03:09:28;;;;;;;10.65;3.90;;;13.10;99.90;;;;;;4213498;28;20558;-84
2023/09/02 03:11:29;;;;;;;7.03;3.60;;;13.10;99.90;;;;;;4229215;28;20130;-83
2023/09/02 03:13:33;;;;;;;8.85;4.05;;;13.10;99.90;;;;;;4249084;27;20036;-84
2023/09/02 03:15:34;;;;;;;6.93;3.78;;;13.00;99.90;;;;;;4230249;28;20056;-82
2023/09/02 03:17:35;;;;;;;6.18;3.83;;;13.00;99.90;;;;;;4231888;28;20127;-84
2023/09/02 03:19:35;;;;;;;5.75;3.58;;;13.00;99.90;;;;;;4231165;28;20040;-83
2023/09/02 03:21:40;;;;;;;8.82;4.28;;;13.00;99.90;;;;;;4231973;28;20054;-84
2023/09/02 03:23:41;;;;;;;8.25;3.35;;;13.00;99.90;;;;;;4231481;28;20548;-84
2023/09/02 03:25:42;;;;;;;6.70;4.53;;;13.00;99.90;;;;;;4231395;28;20040;-84
2023/09/02 03:27:43;;;;;;;6.95;4.78;;;13.00;99.90;;;;;;4231766;28;20047;-83
2023/09/02 03:29:48;;;;;;;7.65;3.95;;;13.00;99.90;;;;;;4231413;28;20104;-84
2023/09/02 03:31:49;;;;;;;6.82;3.58;;;13.00;99.90;;;;;;4231047;28;20488;-83
2023/09/02 03:33:49;;;;;;;7.35;3.97;;;13.00;99.90;;;;;;4231498;28;20118;-83
2023/09/02 03:35:51;;;;;;;6.35;4.03;;;12.90;99.90;;;;;;4197992;28;20053;-84
2023/09/02 03:37:52;;;;;;;6.43;3.42;;;13.00;99.90;;;;;;4214639;28;20439;-83
2023/09/02 03:39:57;;;;;;;5.43;3.72;;;13.00;99.90;;;;;;4213319;28;20130;-83
2023/09/02 03:41:58;;;;;;;6.90;3.60;;;12.90;99.90;;;;;;4196458;28;20045;-83
2023/09/02 03:44:00;;;;;;;5.72;3.92;;;13.00;99.90;;;;;;4214254;28;20515;-83
2023/09/02 03:46:01;;;;;;;8.73;3.95;;;13.00;99.90;;;;;;4214585;28;20454;-83
2023/09/02 03:48:01;;;;;;;6.15;3.60;;;12.90;99.90;;;;;;4214554;28;20052;-83
2023/09/02 03:50:04;;;;;;;7.35;3.75;;;13.00;99.90;;;;;;4214459;28;20048;-83
2023/09/02 03:52:05;;;;;;;7.88;4.70;;;13.00;99.90;;;;;;4213697;28;20131;-83
2023/09/02 03:54:06;;;;;;;9.75;4.00;;;13.10;99.90;;;;;;4213776;28;20047;-83
2023/09/02 03:56:07;;;;;;;9.30;4.38;;;12.90;99.90;;;;;;4213636;28;20098;-85
2023/09/02 03:58:08;;;;;;;8.68;4.15;;;13.00;99.90;;;;;;4214993;28;20801;-84
2023/09/02 04:00:09;;;;;;;7.18;4.00;;;12.90;99.90;;;;;;4200245;28;20052;-84
2023/09/02 04:02:10;;;;;;;6.53;4.22;;;13.00;99.90;;;;;;4214451;28;20052;-84
2023/09/02 04:04:11;;;;;;;8.70;4.30;;;13.00;99.90;;;;;;4213498;28;20052;-83
2023/09/02 04:06:12;;;;;;;6.35;3.95;;;12.90;99.90;;;;;;4232102;28;20415;-83
2023/09/02 04:08:15;;;;;;;7.15;4.30;;;13.00;99.90;;;;;;4231567;28;20040;-83
2023/09/02 04:10:16;;;;;;;8.13;4.03;;;12.90;99.90;;;;;;4213413;28;20093;-85
2023/09/02 04:12:17;;;;;;;9.27;4.03;;;12.90;99.90;;;;;;4213061;28;20075;-84
2023/09/02 04:14:18;;;;;;;7.13;4.00;;;12.90;99.90;;;;;;4231414;28;20238;-84
2023/09/02 04:16:19;;;;;;;9.75;4.35;;;12.90;99.90;;;;;;4247531;27;20051;-84
2023/09/02 04:18:22;;;;;;;9.57;4.70;;;12.90;99.90;;;;;;4213206;28;20424;-83
2023/09/02 04:20:23;;;;;;;6.50;4.57;;;12.90;99.90;;;;;;4229822;28;20039;-83
2023/09/02 04:22:23;;;;;;;5.85;4.00;;;12.90;99.90;;;;;;4214405;28;20053;-84
2023/09/02 04:24:24;;;;;;;7.03;4.38;;;12.90;99.90;;;;;;4252077;27;20061;-84
2023/09/02 04:26:25;;;;;;;8.52;4.10;;;12.90;99.90;;;;;;4252303;27;20084;-84
2023/09/02 04:28:26;;;;;;;7.45;4.10;;;13.30;99.90;;;;;;4235618;28;20112;-84
2023/09/02 04:30:27;;;;;;;5.65;3.95;;;13.00;99.90;;;;;;4253411;27;20042;-84
2023/09/02 04:32:28;;;;;;;6.50;4.20;;;12.90;99.90;;;;;;4218269;28;20040;-84
2023/09/02 04:34:28;;;;;;;6.60;3.97;;;12.90;99.90;;;;;;4230590;28;20036;-85
2023/09/02 04:36:30;;;;;;;6.53;4.00;;;12.90;99.90;;;;;;4199738;28;20083;-84
2023/09/02 04:38:31;;;;;;;8.07;4.32;;;13.00;99.90;;;;;;4234574;28;20044;-84
2023/09/02 04:40:43;;;;;;;7.50;4.05;;;12.90;99.90;;;;;;4216007;28;20534;-84
2023/09/02 04:42:44;;;;;;;5.72;3.53;;;12.90;99.90;;;;;;4199407;28;20044;-84
2023/09/02 04:44:44;;;;;;;6.75;3.83;;;12.90;99.90;;;;;;4233894;28;20127;-85
2023/09/02 04:46:45;;;;;;;6.25;3.60;;;14.00;99.90;;;;;;4234296;28;20127;-84
2023/09/02 04:48:47;;;;;;;10.90;3.90;;;12.90;99.90;;;;;;4233652;28;20046;-84
2023/09/02 04:50:55;;;;;;;6.97;3.58;;;12.90;99.90;;;;;;4216079;28;20079;-84
2023/09/02 04:52:57;;;;;;;6.13;4.00;;;12.80;99.90;;;;;;4230331;28;20089;-85
2023/09/02 04:54:57;;;;;;;5.90;3.80;;;12.80;99.90;;;;;;4221681;28;20320;-83
2023/09/02 04:56:58;;;;;;;7.40;4.15;;;12.80;99.90;;;;;;4220692;28;20043;-84
2023/09/02 04:58:59;;;;;;;9.45;4.30;;;12.80;99.90;;;;;;4231974;28;20110;-84
2023/09/02 05:01:13;;;;;;;8.63;4.43;;;12.90;99.90;;;;;;4250800;27;20043;-84
2023/09/02 05:03:13;;;;;;;5.78;3.75;;;12.80;99.90;;;;;;4250713;27;20131;-84
2023/09/02 05:05:17;;;;;;;6.13;3.80;;;12.80;99.90;;;;;;4231720;28;20044;-84
2023/09/02 05:07:17;;;;;;;6.97;3.83;;;12.80;99.90;;;;;;4250358;27;20050;-84
2023/09/02 05:09:18;;;;;;;8.48;4.18;;;12.80;99.90;;;;;;4232024;28;20087;-84
2023/09/02 05:11:19;;;;;;;7.07;4.30;;;12.80;99.90;;;;;;4219574;28;20057;-84
2023/09/02 05:13:20;;;;;;;10.48;4.03;;;12.80;99.90;;;;;;4214966;28;20052;-83
2023/09/02 05:15:21;;;;;;;6.93;4.38;;;12.80;99.90;;;;;;4209166;28;20062;-84
2023/09/02 05:17:22;;;;;;;6.03;4.13;;;12.80;99.90;;;;;;4249990;27;20123;-84
2023/09/02 05:19:22;;;;;;;8.15;3.50;;;12.80;99.90;;;;;;4215028;28;20090;-84
2023/09/02 05:21:23;;;;;;;6.70;4.20;;;12.80;99.90;;;;;;4214868;28;20126;-84
2023/09/02 05:23:24;;;;;;;7.43;4.18;;;14.40;99.90;;;;;;4250127;27;20040;-84
2023/09/02 05:25:27;;;;;;;6.25;3.95;;;14.00;99.90;;;;;;4213974;28;20130;-84
2023/09/02 05:27:28;;;;;;;7.57;4.78;;;12.80;99.90;;;;;;4243460;27;20522;-84
2023/09/02 05:29:29;;;;;;;9.00;4.80;;;12.80;99.90;;;;;;4212976;28;20119;-84
2023/09/02 05:31:29;;;;;;;7.18;4.03;;;12.90;99.90;;;;;;4232806;28;20042;-84
2023/09/02 05:33:30;;;;;;;7.60;4.75;;;12.90;99.90;;;;;;4197111;28;20127;-84
2023/09/02 05:35:31;;;;;;;7.78;4.63;;;13.00;99.90;;;;;;4201506;28;20038;-83
2023/09/02 05:37:32;;;;;;;6.43;4.18;;;12.90;99.90;;;;;;4214961;28;20498;-84
2023/09/02 05:39:33;;;;;;;6.45;3.67;;;12.80;99.90;;;;;;4232553;28;20043;-84
2023/09/02 05:41:34;;;;;;;6.25;3.72;;;12.90;99.90;;;;;;4232962;28;20118;-84
2023/09/02 05:43:35;;;;;;;5.47;3.65;;;12.90;99.90;;;;;;4232702;28;20054;-84
2023/09/02 05:45:35;;;;;;;5.40;3.65;;;12.90;99.90;;;;;;4246766;27;20043;-84
2023/09/02 05:47:36;;;;;;;5.50;3.72;;;12.90;99.90;;;;;;4228591;28;20044;-84
2023/09/02 05:49:37;;;;;;;6.22;4.10;;;12.90;99.90;;;;;;4214703;28;20412;-84
2023/09/02 05:51:38;;;;;;;6.18;4.20;;;12.90;99.90;;;;;;4214724;28;20523;-84
2023/09/02 05:53:39;;;;;;;6.43;4.15;;;12.90;99.90;;;;;;4232232;28;20085;-83
2023/09/02 05:55:40;;;;;;;6.43;3.90;;;13.10;99.90;;;;;;4199589;28;20044;-83
2023/09/02 05:57:41;;;;;;;6.05;3.67;;;12.20;99.90;;;;;;4210679;28;20051;-83
2023/09/02 05:59:44;;;;;;;7.63;3.72;;;13.00;99.90;;;;;;4249516;27;20047;-83
2023/09/02 06:01:46;;;;;;;8.40;4.07;;;13.10;99.90;;;;;;4247749;27;20479;-84
2023/09/02 06:03:47;;;;;;;7.20;4.00;;;13.10;99.90;;;;;;4232547;28;20410;-84
2023/09/02 06:05:48;;;;;;;7.65;4.28;;;13.20;99.90;;;;;;4214253;28;20115;-84
2023/09/02 06:07:48;;;;;;;8.10;4.30;;;13.30;99.90;;;;;;4232249;28;20047;-84
2023/09/02 06:09:50;;;;;;;7.78;4.70;;;13.30;99.90;;;;;;4231220;28;20051;-83
2023/09/02 06:11:51;;;;;;;6.63;4.18;;;13.40;99.90;;;;;;4249300;27;20039;-84
2023/09/02 06:13:52;;;;;;;6.80;4.93;;;13.40;99.90;;;;;;4229018;28;20079;-84
2023/09/02 06:16:00;;;;;;;8.25;4.45;;;13.40;99.90;;;;;;4213415;28;20059;-84
2023/09/02 06:18:01;;;;;;;9.27;5.10;;;13.60;99.90;;;;;;4215559;28;20503;-83
2023/09/02 06:20:02;;;;;;;6.32;4.20;;;13.60;99.90;;;;;;4214042;28;20044;-84
2023/09/02 06:22:03;;;;;;;7.50;4.65;;;13.60;99.90;;;;;;4213910;28;20135;-83
2023/09/02 06:24:05;;;;;;;8.75;5.28;;;13.70;99.90;;;;;;4198934;28;20770;-84
2023/09/02 06:26:06;;;;;;;7.18;4.88;;;13.70;99.90;;;;;;4228311;27;20129;-84
2023/09/02 06:28:07;;;;;;;7.75;4.53;;;13.90;99.90;;;;;;4215036;28;20047;-84
2023/09/02 06:30:08;;;;;;;8.18;4.50;;;13.90;99.90;;;;;;4213911;28;20488;-83
2023/09/02 06:32:08;;;;;;;11.50;4.90;;;13.90;99.90;;;;;;4201058;28;20144;-84
2023/09/02 06:34:09;;;;;;;9.55;5.40;;;14.10;99.90;;;;;;4230636;28;20101;-83
2023/09/02 06:36:11;;;;;;;9.80;5.18;;;14.10;99.90;;;;;;4231932;28;20043;-83
2023/09/02 06:38:13;;;;;;;11.85;4.97;;;14.30;99.90;;;;;;4230587;28;20365;-84
2023/09/02 06:40:14;;;;;;;9.95;5.80;;;14.30;99.90;;;;;;4231996;28;20044;-84
2023/09/02 06:42:15;;;;;;;8.20;5.28;;;14.40;99.90;;;;;;4231894;28;20127;-84
2023/09/02 06:44:16;;;;;;;11.40;5.03;;;14.50;99.90;;;;;;4213688;28;20044;-84
2023/09/02 06:46:19;;;;;;;11.20;5.07;;;14.60;99.90;;;;;;4231688;28;20048;-84
2023/09/02 06:48:20;;;;;;;11.63;6.10;;;14.70;99.90;;;;;;4230413;28;20435;-84
2023/09/02 06:50:21;;;;;;;9.38;5.72;;;14.80;99.90;;;;;;4230653;28;20063;-84
2023/09/02 06:52:21;;;;;;;10.38;5.97;;;14.90;99.90;;;;;;4230978;28;20072;-84
2023/09/02 06:54:22;;;;;;;11.15;6.07;;;15.00;99.90;;;;;;4230480;28;20047;-84
2023/09/02 06:56:23;;;;;;;11.38;6.65;;;15.20;99.90;;;;;;4226329;28;20088;-84
2023/09/02 06:58:24;;;;;;;12.68;6.53;;;15.30;99.90;;;;;;4203062;28;20048;-84
2023/09/02 07:00:24;;;;;;;13.52;6.20;;;15.40;99.90;;;;;;4229569;28;20154;-81
2023/09/02 07:02:27;;;;;;;10.65;6.30;;;15.50;99.90;;;;;;4228018;28;20459;-81
2023/09/02 07:04:28;;;;;;;12.43;6.65;;;15.50;99.90;;;;;;4228769;28;20035;-82
2023/09/02 07:06:30;;;;;;;10.82;6.07;;;;;;;;;;4213618;28;20400;-82
2023/09/02 07:08:32;;;;;;;12.50;5.85;;;;;;;;;;4229967;28;20476;-83
2023/09/02 07:10:33;;;;;;;9.30;6.25;;;;;;;;;;4231537;28;20032;-83
2023/09/02 07:12:34;;;;;;;10.00;5.78;;;;;;;;;;4231893;28;20040;-83
2023/09/02 07:14:35;;;;;;;11.05;6.05;;;;;;;;;;4229781;28;20051;-83
2023/09/02 07:16:37;;;;;;;10.68;6.00;;;;;;;;;;4230235;28;20054;-83
2023/09/02 07:18:38;;;;;;;13.75;6.22;;;;;;;;;;4230052;28;20063;-82
2023/09/02 07:20:39;;;;;;;12.85;6.55;;;;;;;;;;4229314;28;20114;-83
2023/09/02 07:22:40;;;;;;;11.57;5.72;;;;;;;;;;4230061;28;20046;-82
2023/09/02 07:24:41;;;;;;;13.85;6.32;;;;;;;;;;4201960;28;20044;-83
2023/09/02 07:26:43;;;;;;;10.20;5.97;;;;;;;;;;4217556;28;20048;-83
2023/09/02 07:28:43;;;;;;;13.18;6.63;;;15.70;99.90;;;;;;4230263;28;20043;-83
2023/09/02 07:30:44;;;;;;;12.95;6.80;;;17.50;99.90;;;;;;4225921;28;20316;-81
2023/09/02 07:32:45;;;;;;;11.27;5.93;;;17.40;99.90;;;;;;4228013;28;20575;-81
2023/09/02 07:34:46;;;;;;;10.35;6.05;;;17.50;99.90;;;;;;4229832;28;20419;-83
2023/09/02 07:36:47;;;;;;;12.52;6.65;;;17.60;99.90;;;;;;4231216;28;20505;-84
2023/09/02 07:38:47;;;;;;;10.13;5.93;;;17.70;99.90;;;;;;4221305;28;20040;-80
2023/09/02 07:40:48;;;;;;;11.13;6.40;;;17.90;99.90;;;;;;4223264;28;20592;-80
2023/09/02 07:42:50;;;;;;;10.43;6.10;;;18.00;99.90;;;;;;4214319;28;20454;-81
2023/09/02 07:44:51;;;;;;;11.63;6.63;;;18.10;99.90;;;;;;4226604;28;20067;-81
2023/09/02 07:46:54;;;;;;;10.80;6.00;;;18.40;99.90;;;;;;4231101;28;20051;-81
2023/09/02 07:48:54;;;;;;;10.25;6.05;;;18.40;99.90;;;;;;4230617;28;20143;-80
2023/09/02 07:50:55;;;;;;;9.93;5.60;;;18.50;99.90;;;;;;4231062;28;20047;-81
2023/09/02 07:52:56;;;;;;;9.88;5.53;;;18.60;99.90;;;;;;4231106;28;20040;-82
2023/09/02 07:54:56;;;;;;;9.00;5.90;;;18.80;99.90;;;;;;4229543;28;20043;-81
2023/09/02 07:56:57;;;;;;;9.70;5.78;;;18.90;99.90;;;;;;4225197;28;20032;-80
2023/09/02 07:58:58;;;;;;;10.10;5.88;;;19.00;99.90;;;;;;4232719;28;20071;-80
2023/09/02 08:00:59;;;;;;;11.63;5.75;;;19.20;99.90;;;;;;4234209;28;20101;-78
2023/09/02 08:03:00;;;;;;;10.85;6.40;;;;;;;;;;4233789;28;20062;-78
2023/09/02 08:05:01;;;;;;;8.90;5.32;;;;;;;;;;4234162;28;20043;-79
2023/09/02 08:07:02;;;;;;;8.80;5.97;;;;;;;;;;4234091;28;20039;-81
2023/09/02 08:09:03;;;;;;;11.82;6.20;;;;;;;;;;4234486;28;20541;-81
2023/09/02 08:11:05;;;;;;;11.70;6.15;;;;;;;;;;4233918;28;20040;-81
2023/09/02 08:13:07;;;;;;;9.00;5.35;;;;;;;;;;4215916;28;20048;-80
2023/09/02 08:15:08;;;;;;;12.35;6.10;;;;;;;;;;4239597;27;20081;-79
2023/09/02 08:17:09;;;;;;;12.65;5.97;;;;;;;;;;4250963;27;20062;-80
2023/09/02 08:19:10;;;;;;;9.40;4.93;;;;;;;;;;4251002;27;20045;-79
2023/09/02 08:21:11;;;;;;;10.93;5.35;;;19.30;99.90;;;;;;4251206;27;20486;-81
2023/09/02 08:23:12;;;;;;;8.68;5.50;;;20.70;99.90;;;;;;4250763;27;20100;-80
2023/09/02 08:25:12;;;;;;;8.93;5.40;;;20.80;99.90;;;;;;4250074;27;20479;-80
2023/09/02 08:27:13;;;;;;;10.60;5.03;;;20.90;99.90;;;;;;4239090;27;20497;-80
2023/09/02 08:29:14;;;;;;;12.77;5.75;;;21.00;99.90;;;;;;4233353;28;20510;-80
2023/09/02 08:31:18;;;;;;;10.43;4.88;;;21.20;99.90;;;;;;4233692;28;20051;-79
2023/09/02 08:33:19;;;;;;;14.65;6.28;;;21.30;99.90;;;;;;4235912;27;20071;-80
2023/09/02 08:35:19;;;;;;;10.48;4.93;;;21.40;99.90;;;;;;4233337;28;20040;-80
2023/09/02 08:37:23;;;;;;;10.90;5.25;;;21.70;99.90;;;;;;4215011;28;20576;-79
2023/09/02 08:39:24;;;;;;;8.95;4.88;;;21.90;99.90;;;;;;4233636;28;20046;-80
2023/09/02 08:41:35;;;;;;;10.93;5.32;;;22.00;99.90;;;;;;4233679;28;20039;-79
2023/09/02 08:43:36;;;;;;;8.30;4.53;;;22.10;99.90;;;;;;4233236;28;20340;-79
2023/09/02 08:45:43;;;;;;;7.68;4.00;;;22.30;99.90;;;;;;4247469;27;20039;-80
2023/09/02 08:47:47;;;;;;;10.30;4.60;;;22.30;99.90;;;;;;4250245;27;20395;-80
2023/09/02 08:49:50;;;;;;;8.32;4.05;;;22.50;99.90;;;;;;4250513;27;20051;-79
2023/09/02 08:51:53;;;;;;;10.65;4.57;;;;;;;;;;4232128;28;20051;-80
2023/09/02 08:53:55;;;;;;;8.70;3.92;;;22.60;99.90;;;;;;4250488;27;20079;-82
2023/09/02 08:55:58;;;;;;;9.00;4.13;;;22.90;99.90;;;;;;4246353;27;20375;-81
2023/09/02 08:58:00;;;;;;;6.80;4.03;;;22.10;99.90;;;;;;4229032;28;20095;-80
2023/09/02 09:00:01;;;;;;;7.35;4.03;;;22.90;99.90;;;;;;4250249;27;20047;-81
2023/09/02 09:02:02;;;;;;;8.80;3.80;;;22.80;99.90;;;;;;4247804;27;20145;-81
2023/09/02 09:04:03;;;;;;;8.73;3.83;;;22.90;99.90;;;;;;4232995;28;20039;-81
2023/09/02 09:06:09;;;;;;;6.50;3.20;;;23.00;99.90;;;;;;4232867;28;20555;-81
2023/09/02 09:08:12;;;;;;;9.52;3.95;;;23.10;99.90;;;;;;4232581;28;20110;-80
2023/09/02 09:10:15;;;;;;;8.75;4.10;;;23.30;99.90;;;;;;4232371;28;20048;-79
2023/09/02 09:12:18;;;;;;;8.32;3.67;;;23.40;99.90;;;;;;4233501;28;20484;-80
2023/09/02 09:14:23;;;;;;;7.03;3.58;;;;;;;;;;4218196;28;20039;-80
2023/09/02 09:16:25;;;;;;;7.10;3.53;;;23.60;99.90;;;;;;4230817;28;20058;-80
2023/09/02 09:18:26;;;;;;;7.13;4.15;;;24.00;99.90;;;;;;4249833;27;20053;-81
2023/09/02 09:20:27;;;;;;;6.35;3.97;;;24.30;99.90;;;;;;4249964;27;20122;-81
2023/09/02 09:22:28;;;;;;;10.18;4.60;;;25.40;99.90;;;;;;4249627;27;20051;-81
2023/09/02 09:24:29;;;;;;;7.88;4.03;;;24.80;99.90;;;;;;4249967;27;20791;-81
2023/09/02 09:26:31;;;;;;;10.93;3.92;;;25.10;99.90;;;;;;4242796;27;20047;-81
2023/09/02 09:28:58;;;;;;;6.32;3.35;;;25.30;99.90;;;;;;4232609;28;20077;-80
2023/09/02 09:30:59;;;;;;;5.40;3.65;;;;;;;;;;4214451;28;20059;-80
2023/09/02 09:33:01;;;;;;;7.50;3.70;;;25.50;99.90;;;;;;4242802;27;20043;-79
2023/09/02 09:35:02;;;;;;;16.15;4.38;;;26.10;99.90;;;;;;4249338;27;20051;-79
2023/09/02 09:37:03;;;;;;;6.30;4.15;;;26.50;99.90;;;;;;4249992;27;20546;-81
2023/09/02 09:39:06;;;;;;;10.90;5.18;;;26.80;99.90;;;;;;4243739;27;20119;-80
2023/09/02 09:41:11;;;;;;;7.88;4.22;;;26.90;99.90;;;;;;4232846;28;20044;-80
2023/09/02 09:43:16;;;;;;;9.43;4.22;;;27.00;99.90;;;;;;4214790;28;20055;-80
2023/09/02 09:45:17;;;;;;;7.90;4.50;;;27.40;99.90;;;;;;4232559;28;20091;-80
2023/09/02 09:47:18;;;;;;;5.78;3.33;;;27.60;99.90;;;;;;4215323;28;20043;-79
2023/09/02 09:49:23;;;;;;;6.88;3.30;;;27.40;99.90;;;;;;4252365;28;20100;-79
2023/09/02 09:51:24;;;;;;;8.32;4.13;;;27.20;99.90;;;;;;4252808;28;20044;-79
2023/09/02 09:53:31;;;;;;;7.38;4.57;;;27.30;99.90;;;;;;4233217;28;20068;-79
2023/09/02 09:55:34;;;;;;;7.00;3.13;;;27.50;99.90;;;;;;4251707;27;20039;-79
2023/09/02 09:57:38;;;;;;;9.15;3.70;;;27.50;99.90;;;;;;4263309;27;20039;-80
2023/09/02 09:59:39;;;;;;;7.18;3.55;;;27.60;99.90;;;;;;4250854;28;20099;-79
2023/09/02 10:01:47;;;;;;;6.70;3.35;;;27.70;99.90;;;;;;4266067;27;20047;-78
2023/09/02 10:03:48;;;;;;;7.75;3.10;;;27.80;99.90;;;;;;4237269;28;20106;-79
2023/09/02 10:05:58;;;;;;;9.50;3.47;;;27.90;99.90;;;;;;4246652;27;20035;-79
2023/09/02 10:08:03;;;;;;;8.10;3.53;;;27.90;99.90;;;;;;4253942;27;20047;-81
2023/09/02 10:10:05;;;;;;;7.15;3.30;;;27.50;99.90;;;;;;4255283;27;20403;-80
2023/09/02 10:12:15;;;;;;;6.70;3.63;;;27.50;99.90;;;;;;4251503;27;20470;-79
2023/09/02 10:14:17;;;;;;;7.85;3.38;;;27.70;99.90;;;;;;4238550;28;20042;-81
2023/09/02 10:16:19;;;;;;;6.47;3.22;;;;;;;;;;4254286;27;20051;-80
2023/09/02 10:18:23;;;;;;;6.85;3.40;;;;;;;;;;4255544;27;20103;-80
2023/09/02 10:20:25;;;;;;;6.40;3.58;;;;;;;;;;4255452;27;20506;-80
2023/09/02 10:22:29;;;;;;;7.50;2.90;;;;;;;;;;4236413;28;20043;-80
2023/09/02 10:24:33;;;;;;;5.40;3.17;;;;;;;;;;4255086;27;20046;-80
2023/09/02 10:26:43;;;;;;;7.57;3.03;;;;;;;;;;4243099;27;20803;-81
2023/09/02 10:28:49;;;;;;;9.55;4.45;;;27.90;99.90;;;;;;4214877;28;20044;-80
2023/09/02 10:30:52;;;;;;;8.93;3.60;;;29.40;99.30;;;;;;4232086;28;20047;-80
2023/09/02 10:33:09;;;;;;;8.68;3.53;;;29.50;99.30;;;;;;4239020;27;20103;-80
2023/09/02 10:35:22;;;;;;;6.03;3.80;;;29.60;98.40;;;;;;4248923;27;20115;-80
2023/09/02 10:37:28;;;;;;;8.75;3.50;;;29.80;97.50;;;;;;4230566;28;20122;-81
2023/09/02 10:39:36;;;;;;;8.85;3.45;;;29.90;97.40;;;;;;4244389;27;20077;-82
2023/09/02 10:41:39;;;;;;;5.15;3.28;;;30.00;97.10;;;;;;4230240;28;20051;-82
2023/09/02 10:43:41;;;;;;;7.22;2.90;;;30.10;97.20;;;;;;4232169;28;20070;-82